Terminal Aerodrome Forecast
Issued by NWS

Home | Current Version | Previous Version | Text Only | Print | Product List | Glossary On
Versions: 1 2 3 4 5 6 7 8 9 10 11 12 13 14 15 16 17 18 19 20 21 22 23 24 25
000
FTUS43 KGRB 241124
TAFMTW
TAF
KMTW 241124Z 2412/2512 14005KT P6SM BKN090
     FM241500 16011G18KT P6SM BKN070
     FM242000 12010KT P6SM -SHRA SCT025 OVC050
      TEMPO 2421/2423 5SM -RA BR OVC020
     FM242300 11010KT 3SM RA BR OVC015
     FM250300 12010KT 2SM RA BR BKN006 OVC012 WS013/17035KT=

USA.gov is the U.S. government's official web portal to all federal, state and local government web resources and services.